sensor_id;sensor_type;location;lat;lon;timestamp;P1;durP1;ratioP1;P2;durP2;ratioP2
9834;SDS011;4956;50.996;13.716;2023-03-07T00:02:25;21.40;;;12.70;;
9834;SDS011;4956;50.996;13.716;2023-03-07T00:05:45;20.38;;;12.35;;
9834;SDS011;4956;50.996;13.716;2023-03-07T00:09:05;24.25;;;13.10;;
9834;SDS011;4956;50.996;13.716;2023-03-07T00:12:26;23.00;;;12.98;;
9834;SDS011;4956;50.996;13.716;2023-03-07T00:15:46;20.98;;;12.25;;
9834;SDS011;4956;50.996;13.716;2023-03-07T00:19:07;22.33;;;12.65;;
9834;SDS011;4956;50.996;13.716;2023-03-07T00:22:27;22.08;;;12.80;;
9834;SDS011;4956;50.996;13.716;2023-03-07T00:25:54;22.17;;;12.85;;
9834;SDS011;4956;50.996;13.716;2023-03-07T00:29:18;20.42;;;12.18;;
9834;SDS011;4956;50.996;13.716;2023-03-07T00:32:39;22.83;;;13.02;;
9834;SDS011;4956;50.996;13.716;2023-03-07T00:36:00;21.70;;;12.57;;
9834;SDS011;4956;50.996;13.716;2023-03-07T00:39:25;19.83;;;11.93;;
9834;SDS011;4956;50.996;13.716;2023-03-07T00:42:45;23.65;;;12.93;;
9834;SDS011;4956;50.996;13.716;2023-03-07T00:46:05;22.75;;;12.95;;
9834;SDS011;4956;50.996;13.716;2023-03-07T00:49:26;20.33;;;12.88;;
9834;SDS011;4956;50.996;13.716;2023-03-07T00:52:47;22.40;;;12.85;;
9834;SDS011;4956;50.996;13.716;2023-03-07T00:56:11;21.70;;;12.77;;
9834;SDS011;4956;50.996;13.716;2023-03-07T00:59:37;22.17;;;12.82;;
9834;SDS011;4956;50.996;13.716;2023-03-07T01:02:58;21.63;;;13.20;;
9834;SDS011;4956;50.996;13.716;2023-03-07T01:06:22;21.85;;;12.90;;
9834;SDS011;4956;50.996;13.716;2023-03-07T01:09:48;23.58;;;14.35;;
9834;SDS011;4956;50.996;13.716;2023-03-07T01:13:11;21.02;;;13.13;;
9834;SDS011;4956;50.996;13.716;2023-03-07T01:16:32;22.50;;;13.13;;
9834;SDS011;4956;50.996;13.716;2023-03-07T01:19:54;21.25;;;12.88;;
9834;SDS011;4956;50.996;13.716;2023-03-07T01:23:15;22.42;;;13.00;;
9834;SDS011;4956;50.996;13.716;2023-03-07T01:26:35;21.98;;;12.93;;
9834;SDS011;4956;50.996;13.716;2023-03-07T01:29:56;21.45;;;13.45;;
9834;SDS011;4956;50.996;13.716;2023-03-07T01:33:16;22.10;;;12.52;;
9834;SDS011;4956;50.996;13.716;2023-03-07T01:36:37;23.30;;;13.82;;
9834;SDS011;4956;50.996;13.716;2023-03-07T01:39:58;22.88;;;12.95;;
9834;SDS011;4956;50.996;13.716;2023-03-07T01:46:57;23.88;;;13.68;;
9834;SDS011;4956;50.996;13.716;2023-03-07T01:50:25;24.52;;;13.63;;
9834;SDS011;4956;50.996;13.716;2023-03-07T01:53:47;21.70;;;13.32;;
9834;SDS011;4956;50.996;13.716;2023-03-07T01:57:08;23.00;;;13.43;;
9834;SDS011;4956;50.996;13.716;2023-03-07T02:00:28;21.60;;;13.32;;
9834;SDS011;4956;50.996;13.716;2023-03-07T02:03:52;20.35;;;12.57;;
9834;SDS011;4956;50.996;13.716;2023-03-07T02:07:15;21.35;;;13.02;;
9834;SDS011;4956;50.996;13.716;2023-03-07T02:10:36;21.20;;;13.15;;
9834;SDS011;4956;50.996;13.716;2023-03-07T02:13:56;21.30;;;12.75;;
9834;SDS011;4956;50.996;13.716;2023-03-07T02:17:17;22.10;;;13.63;;
9834;SDS011;4956;50.996;13.716;2023-03-07T02:24:31;21.35;;;13.05;;
9834;SDS011;4956;50.996;13.716;2023-03-07T02:27:57;20.90;;;12.85;;
9834;SDS011;4956;50.996;13.716;2023-03-07T02:31:18;21.67;;;12.77;;
9834;SDS011;4956;50.996;13.716;2023-03-07T02:34:39;22.67;;;13.13;;
9834;SDS011;4956;50.996;13.716;2023-03-07T02:38:04;20.08;;;13.02;;
9834;SDS011;4956;50.996;13.716;2023-03-07T02:41:29;19.83;;;12.02;;
9834;SDS011;4956;50.996;13.716;2023-03-07T02:44:55;22.10;;;12.70;;
9834;SDS011;4956;50.996;13.716;2023-03-07T02:48:17;20.52;;;13.07;;
9834;SDS011;4956;50.996;13.716;2023-03-07T02:51:38;20.42;;;13.00;;
9834;SDS011;4956;50.996;13.716;2023-03-07T02:54:59;21.77;;;12.73;;
9834;SDS011;4956;50.996;13.716;2023-03-07T02:58:24;21.40;;;12.60;;
9834;SDS011;4956;50.996;13.716;2023-03-07T03:01:45;21.17;;;12.88;;
9834;SDS011;4956;50.996;13.716;2023-03-07T03:05:05;21.65;;;12.95;;
9834;SDS011;4956;50.996;13.716;2023-03-07T03:08:26;20.85;;;12.63;;
9834;SDS011;4956;50.996;13.716;2023-03-07T03:11:46;20.35;;;12.80;;
9834;SDS011;4956;50.996;13.716;2023-03-07T03:15:08;21.42;;;12.52;;
9834;SDS011;4956;50.996;13.716;2023-03-07T03:18:29;19.42;;;11.82;;
9834;SDS011;4956;50.996;13.716;2023-03-07T03:21:52;21.45;;;12.45;;
9834;SDS011;4956;50.996;13.716;2023-03-07T03:25:13;19.42;;;11.93;;
9834;SDS011;4956;50.996;13.716;2023-03-07T03:28:36;18.17;;;11.13;;
9834;SDS011;4956;50.996;13.716;2023-03-07T03:31:58;18.50;;;11.63;;
9834;SDS011;4956;50.996;13.716;2023-03-07T03:35:18;19.08;;;11.65;;
9834;SDS011;4956;50.996;13.716;2023-03-07T03:38:40;17.75;;;11.10;;
9834;SDS011;4956;50.996;13.716;2023-03-07T03:42:02;18.33;;;11.73;;
9834;SDS011;4956;50.996;13.716;2023-03-07T03:45:23;19.20;;;11.73;;
9834;SDS011;4956;50.996;13.716;2023-03-07T03:48:43;21.58;;;11.80;;
9834;SDS011;4956;50.996;13.716;2023-03-07T03:52:04;17.98;;;11.18;;
9834;SDS011;4956;50.996;13.716;2023-03-07T03:55:25;19.38;;;11.73;;
9834;SDS011;4956;50.996;13.716;2023-03-07T03:58:46;16.30;;;10.30;;
9834;SDS011;4956;50.996;13.716;2023-03-07T04:02:14;18.20;;;11.52;;
9834;SDS011;4956;50.996;13.716;2023-03-07T04:05:38;18.60;;;10.82;;
9834;SDS011;4956;50.996;13.716;2023-03-07T04:08:58;20.23;;;11.40;;
9834;SDS011;4956;50.996;13.716;2023-03-07T04:12:19;16.60;;;10.20;;
9834;SDS011;4956;50.996;13.716;2023-03-07T04:15:40;18.17;;;10.73;;
9834;SDS011;4956;50.996;13.716;2023-03-07T04:19:00;17.40;;;10.57;;
9834;SDS011;4956;50.996;13.716;2023-03-07T04:22:22;16.83;;;10.65;;
9834;SDS011;4956;50.996;13.716;2023-03-07T04:29:09;21.05;;;11.38;;
9834;SDS011;4956;50.996;13.716;2023-03-07T04:32:35;16.35;;;9.85;;
9834;SDS011;4956;50.996;13.716;2023-03-07T04:35:55;17.90;;;10.50;;
9834;SDS011;4956;50.996;13.716;2023-03-07T04:39:16;16.42;;;9.90;;
9834;SDS011;4956;50.996;13.716;2023-03-07T04:42:38;17.90;;;9.82;;
9834;SDS011;4956;50.996;13.716;2023-03-07T04:45:59;17.50;;;10.23;;
9834;SDS011;4956;50.996;13.716;2023-03-07T04:49:21;16.15;;;9.55;;
9834;SDS011;4956;50.996;13.716;2023-03-07T04:52:42;17.05;;;10.25;;
9834;SDS011;4956;50.996;13.716;2023-03-07T04:56:04;17.45;;;9.70;;
9834;SDS011;4956;50.996;13.716;2023-03-07T04:59:25;16.55;;;9.80;;
9834;SDS011;4956;50.996;13.716;2023-03-07T05:02:46;16.02;;;10.00;;
9834;SDS011;4956;50.996;13.716;2023-03-07T05:06:09;17.92;;;10.90;;
9834;SDS011;4956;50.996;13.716;2023-03-07T05:09:32;19.33;;;9.85;;
9834;SDS011;4956;50.996;13.716;2023-03-07T05:12:53;17.98;;;10.57;;
9834;SDS011;4956;50.996;13.716;2023-03-07T05:16:14;18.55;;;10.35;;
9834;SDS011;4956;50.996;13.716;2023-03-07T05:19:37;16.35;;;10.07;;
9834;SDS011;4956;50.996;13.716;2023-03-07T05:22:57;19.13;;;10.77;;
9834;SDS011;4956;50.996;13.716;2023-03-07T05:26:18;18.52;;;10.25;;
9834;SDS011;4956;50.996;13.716;2023-03-07T05:29:38;17.05;;;10.23;;
9834;SDS011;4956;50.996;13.716;2023-03-07T05:32:59;19.55;;;10.13;;
9834;SDS011;4956;50.996;13.716;2023-03-07T05:36:19;16.95;;;9.95;;
9834;SDS011;4956;50.996;13.716;2023-03-07T05:39:40;16.98;;;9.80;;
9834;SDS011;4956;50.996;13.716;2023-03-07T05:43:00;16.70;;;9.95;;
9834;SDS011;4956;50.996;13.716;2023-03-07T05:46:21;16.95;;;10.25;;
9834;SDS011;4956;50.996;13.716;2023-03-07T05:49:41;18.98;;;9.85;;
9834;SDS011;4956;50.996;13.716;2023-03-07T05:53:03;17.83;;;10.13;;
9834;SDS011;4956;50.996;13.716;2023-03-07T05:56:24;15.98;;;9.88;;
9834;SDS011;4956;50.996;13.716;2023-03-07T05:59:45;19.40;;;10.38;;
9834;SDS011;4956;50.996;13.716;2023-03-07T06:03:05;17.63;;;10.23;;
9834;SDS011;4956;50.996;13.716;2023-03-07T06:06:26;17.02;;;10.32;;
9834;SDS011;4956;50.996;13.716;2023-03-07T06:09:47;18.85;;;10.68;;
9834;SDS011;4956;50.996;13.716;2023-03-07T06:13:14;16.42;;;9.32;;
9834;SDS011;4956;50.996;13.716;2023-03-07T06:16:35;15.32;;;9.35;;
9834;SDS011;4956;50.996;13.716;2023-03-07T06:19:57;19.42;;;10.23;;
9834;SDS011;4956;50.996;13.716;2023-03-07T06:23:17;16.65;;;9.70;;
9834;SDS011;4956;50.996;13.716;2023-03-07T06:26:38;16.48;;;9.45;;
9834;SDS011;4956;50.996;13.716;2023-03-07T06:29:59;16.23;;;10.18;;
9834;SDS011;4956;50.996;13.716;2023-03-07T06:33:19;16.00;;;9.23;;
9834;SDS011;4956;50.996;13.716;2023-03-07T06:36:40;16.13;;;9.70;;
9834;SDS011;4956;50.996;13.716;2023-03-07T06:40:00;17.40;;;9.68;;
9834;SDS011;4956;50.996;13.716;2023-03-07T06:43:25;17.52;;;9.70;;
9834;SDS011;4956;50.996;13.716;2023-03-07T06:46:46;15.82;;;9.43;;
9834;SDS011;4956;50.996;13.716;2023-03-07T06:50:10;15.68;;;9.43;;
9834;SDS011;4956;50.996;13.716;2023-03-07T06:53:31;15.32;;;9.25;;
9834;SDS011;4956;50.996;13.716;2023-03-07T06:56:52;16.83;;;10.13;;
9834;SDS011;4956;50.996;13.716;2023-03-07T07:00:16;17.38;;;9.15;;
9834;SDS011;4956;50.996;13.716;2023-03-07T07:03:37;16.05;;;9.10;;
9834;SDS011;4956;50.996;13.716;2023-03-07T07:06:57;14.88;;;9.00;;
9834;SDS011;4956;50.996;13.716;2023-03-07T07:10:18;15.77;;;8.52;;
9834;SDS011;4956;50.996;13.716;2023-03-07T07:13:39;14.10;;;8.27;;
9834;SDS011;4956;50.996;13.716;2023-03-07T07:17:00;13.38;;;8.57;;
9834;SDS011;4956;50.996;13.716;2023-03-07T07:20:21;14.55;;;8.38;;
9834;SDS011;4956;50.996;13.716;2023-03-07T07:23:42;13.98;;;8.63;;
9834;SDS011;4956;50.996;13.716;2023-03-07T07:27:03;13.00;;;8.00;;
9834;SDS011;4956;50.996;13.716;2023-03-07T07:30:24;13.52;;;7.95;;
9834;SDS011;4956;50.996;13.716;2023-03-07T07:33:51;11.85;;;7.82;;
9834;SDS011;4956;50.996;13.716;2023-03-07T07:37:12;12.40;;;8.25;;
9834;SDS011;4956;50.996;13.716;2023-03-07T07:40:32;11.73;;;7.43;;
9834;SDS011;4956;50.996;13.716;2023-03-07T07:43:53;12.50;;;7.90;;
9834;SDS011;4956;50.996;13.716;2023-03-07T07:47:19;13.02;;;7.88;;
9834;SDS011;4956;50.996;13.716;2023-03-07T07:50:40;16.38;;;8.43;;
9834;SDS011;4956;50.996;13.716;2023-03-07T07:54:00;12.65;;;7.68;;
9834;SDS011;4956;50.996;13.716;2023-03-07T07:57:21;11.18;;;7.28;;
9834;SDS011;4956;50.996;13.716;2023-03-07T08:00:41;12.10;;;7.47;;
9834;SDS011;4956;50.996;13.716;2023-03-07T08:04:02;10.57;;;6.97;;
9834;SDS011;4956;50.996;13.716;2023-03-07T08:07:22;10.73;;;7.03;;
9834;SDS011;4956;50.996;13.716;2023-03-07T08:10:44;10.95;;;6.95;;
9834;SDS011;4956;50.996;13.716;2023-03-07T08:14:05;11.15;;;7.20;;
9834;SDS011;4956;50.996;13.716;2023-03-07T08:17:25;9.88;;;6.68;;
9834;SDS011;4956;50.996;13.716;2023-03-07T08:20:47;11.57;;;6.82;;
9834;SDS011;4956;50.996;13.716;2023-03-07T08:24:08;9.45;;;6.30;;
9834;SDS011;4956;50.996;13.716;2023-03-07T08:27:28;9.75;;;6.88;;
9834;SDS011;4956;50.996;13.716;2023-03-07T08:30:48;9.55;;;5.97;;
9834;SDS011;4956;50.996;13.716;2023-03-07T08:34:09;9.13;;;6.00;;
9834;SDS011;4956;50.996;13.716;2023-03-07T08:37:29;8.82;;;5.82;;
9834;SDS011;4956;50.996;13.716;2023-03-07T08:40:49;8.88;;;5.68;;
9834;SDS011;4956;50.996;13.716;2023-03-07T08:44:10;9.32;;;6.25;;
9834;SDS011;4956;50.996;13.716;2023-03-07T08:47:30;7.43;;;5.22;;
9834;SDS011;4956;50.996;13.716;2023-03-07T08:50:52;7.88;;;5.47;;
9834;SDS011;4956;50.996;13.716;2023-03-07T08:54:13;8.35;;;5.40;;
9834;SDS011;4956;50.996;13.716;2023-03-07T08:57:33;7.18;;;5.13;;
9834;SDS011;4956;50.996;13.716;2023-03-07T09:00:53;8.18;;;5.15;;
9834;SDS011;4956;50.996;13.716;2023-03-07T09:04:14;6.45;;;4.75;;
9834;SDS011;4956;50.996;13.716;2023-03-07T09:07:34;8.52;;;4.20;;
9834;SDS011;4956;50.996;13.716;2023-03-07T09:10:54;7.40;;;4.93;;
9834;SDS011;4956;50.996;13.716;2023-03-07T09:14:18;6.43;;;4.57;;
9834;SDS011;4956;50.996;13.716;2023-03-07T09:17:38;6.75;;;4.72;;
9834;SDS011;4956;50.996;13.716;2023-03-07T09:20:59;6.38;;;4.75;;
9834;SDS011;4956;50.996;13.716;2023-03-07T09:24:20;7.03;;;4.45;;
9834;SDS011;4956;50.996;13.716;2023-03-07T09:27:40;5.97;;;4.45;;
9834;SDS011;4956;50.996;13.716;2023-03-07T09:31:07;6.75;;;4.90;;
9834;SDS011;4956;50.996;13.716;2023-03-07T09:34:29;7.43;;;5.03;;
9834;SDS011;4956;50.996;13.716;2023-03-07T09:37:49;7.20;;;4.68;;
9834;SDS011;4956;50.996;13.716;2023-03-07T09:44:59;5.53;;;4.22;;
9834;SDS011;4956;50.996;13.716;2023-03-07T09:48:52;7.00;;;5.00;;
9834;SDS011;4956;50.996;13.716;2023-03-07T09:52:32;7.85;;;5.05;;
9834;SDS011;4956;50.996;13.716;2023-03-07T09:55:54;7.35;;;5.30;;
9834;SDS011;4956;50.996;13.716;2023-03-07T09:59:17;6.70;;;4.85;;
9834;SDS011;4956;50.996;13.716;2023-03-07T10:06:39;6.97;;;5.30;;
9834;SDS011;4956;50.996;13.716;2023-03-07T10:10:01;6.65;;;5.28;;
9834;SDS011;4956;50.996;13.716;2023-03-07T10:13:31;8.10;;;5.30;;
9834;SDS011;4956;50.996;13.716;2023-03-07T10:17:04;7.65;;;5.90;;
9834;SDS011;4956;50.996;13.716;2023-03-07T10:28:18;7.03;;;5.25;;
9834;SDS011;4956;50.996;13.716;2023-03-07T10:31:44;8.32;;;5.72;;
9834;SDS011;4956;50.996;13.716;2023-03-07T10:38:32;8.18;;;5.97;;
9834;SDS011;4956;50.996;13.716;2023-03-07T10:41:54;9.30;;;6.60;;
9834;SDS011;4956;50.996;13.716;2023-03-07T10:45:15;8.82;;;6.28;;
9834;SDS011;4956;50.996;13.716;2023-03-07T10:48:37;8.20;;;6.30;;
9834;SDS011;4956;50.996;13.716;2023-03-07T10:52:01;9.82;;;6.30;;
9834;SDS011;4956;50.996;13.716;2023-03-07T10:58:59;9.57;;;5.88;;
9834;SDS011;4956;50.996;13.716;2023-03-07T11:05:47;8.93;;;5.80;;
9834;SDS011;4956;50.996;13.716;2023-03-07T11:09:09;8.13;;;5.90;;
9834;SDS011;4956;50.996;13.716;2023-03-07T11:12:43;8.70;;;5.65;;
9834;SDS011;4956;50.996;13.716;2023-03-07T11:16:08;7.03;;;5.55;;
9834;SDS011;4956;50.996;13.716;2023-03-07T11:19:39;8.52;;;5.90;;
9834;SDS011;4956;50.996;13.716;2023-03-07T11:23:12;7.65;;;5.60;;
9834;SDS011;4956;50.996;13.716;2023-03-07T11:26:39;8.60;;;6.00;;
9834;SDS011;4956;50.996;13.716;2023-03-07T11:30:06;9.07;;;6.00;;
9834;SDS011;4956;50.996;13.716;2023-03-07T11:33:52;9.25;;;6.57;;
9834;SDS011;4956;50.996;13.716;2023-03-07T11:37:25;7.28;;;5.32;;
9834;SDS011;4956;50.996;13.716;2023-03-07T11:40:58;9.23;;;5.97;;
9834;SDS011;4956;50.996;13.716;2023-03-07T11:44:34;7.50;;;5.78;;
9834;SDS011;4956;50.996;13.716;2023-03-07T11:48:18;7.85;;;5.78;;
9834;SDS011;4956;50.996;13.716;2023-03-07T11:59:52;7.40;;;5.70;;
9834;SDS011;4956;50.996;13.716;2023-03-07T12:03:30;8.13;;;5.80;;
9834;SDS011;4956;50.996;13.716;2023-03-07T12:10:53;6.78;;;5.20;;
9834;SDS011;4956;50.996;13.716;2023-03-07T12:18:13;6.57;;;5.00;;
9834;SDS011;4956;50.996;13.716;2023-03-07T12:22:28;7.85;;;5.32;;
9834;SDS011;4956;50.996;13.716;2023-03-07T12:25:42;9.43;;;5.47;;
9834;SDS011;4956;50.996;13.716;2023-03-07T12:29:10;7.90;;;5.60;;
9834;SDS011;4956;50.996;13.716;2023-03-07T12:32:34;8.55;;;5.80;;
9834;SDS011;4956;50.996;13.716;2023-03-07T12:35:57;7.30;;;6.00;;
9834;SDS011;4956;50.996;13.716;2023-03-07T12:43:17;9.27;;;5.85;;
9834;SDS011;4956;50.996;13.716;2023-03-07T12:46:43;6.97;;;5.18;;
9834;SDS011;4956;50.996;13.716;2023-03-07T12:50:13;8.63;;;6.05;;
9834;SDS011;4956;50.996;13.716;2023-03-07T12:53:52;8.77;;;5.93;;
9834;SDS011;4956;50.996;13.716;2023-03-07T12:57:25;7.65;;;5.53;;
9834;SDS011;4956;50.996;13.716;2023-03-07T13:00:49;10.30;;;5.97;;
9834;SDS011;4956;50.996;13.716;2023-03-07T13:04:15;9.27;;;5.85;;
9834;SDS011;4956;50.996;13.716;2023-03-07T13:07:44;8.32;;;5.93;;
9834;SDS011;4956;50.996;13.716;2023-03-07T13:11:05;7.60;;;5.72;;
9834;SDS011;4956;50.996;13.716;2023-03-07T13:14:41;8.77;;;5.38;;
9834;SDS011;4956;50.996;13.716;2023-03-07T13:18:03;7.75;;;5.68;;
9834;SDS011;4956;50.996;13.716;2023-03-07T13:21:30;7.20;;;5.47;;
9834;SDS011;4956;50.996;13.716;2023-03-07T13:24:54;8.38;;;5.88;;
9834;SDS011;4956;50.996;13.716;2023-03-07T13:28:35;8.15;;;5.82;;
9834;SDS011;4956;50.996;13.716;2023-03-07T13:31:57;7.45;;;5.50;;
9834;SDS011;4956;50.996;13.716;2023-03-07T13:38:50;7.40;;;5.55;;
9834;SDS011;4956;50.996;13.716;2023-03-07T13:46:04;7.10;;;5.35;;
9834;SDS011;4956;50.996;13.716;2023-03-07T13:49:33;8.18;;;5.57;;
9834;SDS011;4956;50.996;13.716;2023-03-07T13:52:57;8.82;;;6.00;;
9834;SDS011;4956;50.996;13.716;2023-03-07T13:56:20;8.98;;;5.60;;
9834;SDS011;4956;50.996;13.716;2023-03-07T13:59:50;7.75;;;5.47;;
9834;SDS011;4956;50.996;13.716;2023-03-07T14:03:16;10.00;;;5.50;;
9834;SDS011;4956;50.996;13.716;2023-03-07T14:06:45;8.20;;;5.93;;
9834;SDS011;4956;50.996;13.716;2023-03-07T14:10:24;8.00;;;5.55;;
9834;SDS011;4956;50.996;13.716;2023-03-07T14:14:00;7.57;;;5.13;;
9834;SDS011;4956;50.996;13.716;2023-03-07T14:21:05;7.50;;;5.57;;
9834;SDS011;4956;50.996;13.716;2023-03-07T14:28:27;7.85;;;5.43;;
9834;SDS011;4956;50.996;13.716;2023-03-07T14:31:48;7.22;;;5.40;;
9834;SDS011;4956;50.996;13.716;2023-03-07T14:35:09;9.15;;;5.90;;
9834;SDS011;4956;50.996;13.716;2023-03-07T14:38:34;7.65;;;5.28;;
9834;SDS011;4956;50.996;13.716;2023-03-07T14:42:04;7.18;;;4.97;;
9834;SDS011;4956;50.996;13.716;2023-03-07T14:45:39;7.30;;;5.13;;
9834;SDS011;4956;50.996;13.716;2023-03-07T14:49:07;7.82;;;5.20;;
9834;SDS011;4956;50.996;13.716;2023-03-07T14:52:42;9.57;;;5.38;;
9834;SDS011;4956;50.996;13.716;2023-03-07T14:56:05;9.05;;;6.00;;
9834;SDS011;4956;50.996;13.716;2023-03-07T14:59:26;7.85;;;5.20;;
9834;SDS011;4956;50.996;13.716;2023-03-07T15:02:47;8.95;;;5.50;;
9834;SDS011;4956;50.996;13.716;2023-03-07T15:06:14;6.70;;;4.20;;
9834;SDS011;4956;50.996;13.716;2023-03-07T15:09:36;9.02;;;4.68;;
9834;SDS011;4956;50.996;13.716;2023-03-07T15:12:57;5.70;;;4.30;;
9834;SDS011;4956;50.996;13.716;2023-03-07T15:19:48;5.35;;;4.15;;
9834;SDS011;4956;50.996;13.716;2023-03-07T15:23:20;5.40;;;3.83;;
9834;SDS011;4956;50.996;13.716;2023-03-07T15:26:47;5.63;;;4.03;;
9834;SDS011;4956;50.996;13.716;2023-03-07T15:30:17;5.22;;;3.78;;
9834;SDS011;4956;50.996;13.716;2023-03-07T15:33:42;6.38;;;4.15;;
9834;SDS011;4956;50.996;13.716;2023-03-07T15:44:58;4.85;;;3.65;;
9834;SDS011;4956;50.996;13.716;2023-03-07T15:48:23;4.25;;;3.20;;
9834;SDS011;4956;50.996;13.716;2023-03-07T15:51:51;5.65;;;4.05;;
9834;SDS011;4956;50.996;13.716;2023-03-07T15:55:17;5.53;;;3.95;;
9834;SDS011;4956;50.996;13.716;2023-03-07T15:58:41;5.55;;;3.83;;
9834;SDS011;4956;50.996;13.716;2023-03-07T16:05:51;6.10;;;3.53;;
9834;SDS011;4956;50.996;13.716;2023-03-07T16:09:15;6.38;;;3.88;;
9834;SDS011;4956;50.996;13.716;2023-03-07T16:12:37;5.70;;;4.20;;
9834;SDS011;4956;50.996;13.716;2023-03-07T16:16:06;6.05;;;4.43;;
9834;SDS011;4956;50.996;13.716;2023-03-07T16:19:32;6.32;;;4.07;;
9834;SDS011;4956;50.996;13.716;2023-03-07T16:22:54;7.57;;;4.50;;
9834;SDS011;4956;50.996;13.716;2023-03-07T16:26:24;5.80;;;4.18;;
9834;SDS011;4956;50.996;13.716;2023-03-07T16:29:44;5.88;;;3.88;;
9834;SDS011;4956;50.996;13.716;2023-03-07T16:33:10;6.00;;;4.00;;
9834;SDS011;4956;50.996;13.716;2023-03-07T16:36:32;6.53;;;4.45;;
9834;SDS011;4956;50.996;13.716;2023-03-07T16:39:52;8.85;;;5.65;;
9834;SDS011;4956;50.996;13.716;2023-03-07T16:43:21;9.18;;;4.65;;
9834;SDS011;4956;50.996;13.716;2023-03-07T16:46:47;5.57;;;4.18;;
9834;SDS011;4956;50.996;13.716;2023-03-07T16:50:14;6.45;;;4.25;;
9834;SDS011;4956;50.996;13.716;2023-03-07T16:53:35;5.93;;;4.03;;
9834;SDS011;4956;50.996;13.716;2023-03-07T16:56:56;6.00;;;4.22;;
9834;SDS011;4956;50.996;13.716;2023-03-07T17:00:18;5.97;;;4.10;;
9834;SDS011;4956;50.996;13.716;2023-03-07T17:03:40;5.18;;;3.95;;
9834;SDS011;4956;50.996;13.716;2023-03-07T17:07:00;5.63;;;4.43;;
9834;SDS011;4956;50.996;13.716;2023-03-07T17:10:21;5.85;;;4.40;;
9834;SDS011;4956;50.996;13.716;2023-03-07T17:13:43;5.43;;;4.00;;
9834;SDS011;4956;50.996;13.716;2023-03-07T17:17:04;6.55;;;4.28;;
9834;SDS011;4956;50.996;13.716;2023-03-07T17:20:25;7.50;;;4.95;;
9834;SDS011;4956;50.996;13.716;2023-03-07T17:23:46;6.22;;;4.45;;
9834;SDS011;4956;50.996;13.716;2023-03-07T17:27:08;6.40;;;4.40;;
9834;SDS011;4956;50.996;13.716;2023-03-07T17:30:28;4.90;;;3.72;;
9834;SDS011;4956;50.996;13.716;2023-03-07T17:33:49;5.85;;;4.50;;
9834;SDS011;4956;50.996;13.716;2023-03-07T17:37:10;5.10;;;4.43;;
9834;SDS011;4956;50.996;13.716;2023-03-07T17:40:31;5.22;;;4.10;;
9834;SDS011;4956;50.996;13.716;2023-03-07T17:43:51;6.15;;;3.85;;
9834;SDS011;4956;50.996;13.716;2023-03-07T17:47:11;3.70;;;3.28;;
9834;SDS011;4956;50.996;13.716;2023-03-07T17:50:32;3.55;;;2.42;;
9834;SDS011;4956;50.996;13.716;2023-03-07T17:53:52;2.90;;;2.10;;
9834;SDS011;4956;50.996;13.716;2023-03-07T17:57:12;2.20;;;1.30;;
9834;SDS011;4956;50.996;13.716;2023-03-07T18:00:33;1.35;;;1.20;;
9834;SDS011;4956;50.996;13.716;2023-03-07T18:03:54;1.73;;;1.30;;
9834;SDS011;4956;50.996;13.716;2023-03-07T18:07:15;1.42;;;1.30;;
9834;SDS011;4956;50.996;13.716;2023-03-07T18:10:37;2.50;;;1.58;;
9834;SDS011;4956;50.996;13.716;2023-03-07T18:13:57;2.72;;;1.55;;
9834;SDS011;4956;50.996;13.716;2023-03-07T18:17:18;1.75;;;1.30;;
9834;SDS011;4956;50.996;13.716;2023-03-07T18:20:40;1.83;;;1.52;;
9834;SDS011;4956;50.996;13.716;2023-03-07T18:24:00;2.65;;;1.80;;
9834;SDS011;4956;50.996;13.716;2023-03-07T18:27:22;2.13;;;1.70;;
9834;SDS011;4956;50.996;13.716;2023-03-07T18:30:42;2.90;;;1.90;;
9834;SDS011;4956;50.996;13.716;2023-03-07T18:34:03;2.63;;;1.77;;
9834;SDS011;4956;50.996;13.716;2023-03-07T18:37:24;2.85;;;1.80;;
9834;SDS011;4956;50.996;13.716;2023-03-07T18:40:44;1.70;;;1.60;;
9834;SDS011;4956;50.996;13.716;2023-03-07T18:44:05;2.50;;;1.70;;
9834;SDS011;4956;50.996;13.716;2023-03-07T18:47:25;2.00;;;1.40;;
9834;SDS011;4956;50.996;13.716;2023-03-07T18:50:54;1.67;;;1.55;;
9834;SDS011;4956;50.996;13.716;2023-03-07T18:54:15;3.75;;;1.88;;
9834;SDS011;4956;50.996;13.716;2023-03-07T18:57:35;3.40;;;2.00;;
9834;SDS011;4956;50.996;13.716;2023-03-07T19:00:56;2.63;;;2.10;;
9834;SDS011;4956;50.996;13.716;2023-03-07T19:04:16;2.00;;;1.80;;
9834;SDS011;4956;50.996;13.716;2023-03-07T19:07:38;2.53;;;1.90;;
9834;SDS011;4956;50.996;13.716;2023-03-07T19:11:01;2.10;;;1.90;;
9834;SDS011;4956;50.996;13.716;2023-03-07T19:14:23;2.40;;;2.00;;
9834;SDS011;4956;50.996;13.716;2023-03-07T19:17:43;2.33;;;2.10;;
9834;SDS011;4956;50.996;13.716;2023-03-07T19:21:04;2.25;;;2.05;;
9834;SDS011;4956;50.996;13.716;2023-03-07T19:24:25;2.40;;;2.20;;
9834;SDS011;4956;50.996;13.716;2023-03-07T19:27:45;3.17;;;2.10;;
9834;SDS011;4956;50.996;13.716;2023-03-07T19:31:10;2.10;;;1.90;;
9834;SDS011;4956;50.996;13.716;2023-03-07T19:34:30;2.10;;;1.90;;
9834;SDS011;4956;50.996;13.716;2023-03-07T19:37:50;2.05;;;1.85;;
9834;SDS011;4956;50.996;13.716;2023-03-07T19:41:11;2.13;;;1.80;;
9834;SDS011;4956;50.996;13.716;2023-03-07T19:44:33;2.55;;;1.80;;
9834;SDS011;4956;50.996;13.716;2023-03-07T19:47:53;3.65;;;2.50;;
9834;SDS011;4956;50.996;13.716;2023-03-07T19:51:14;2.67;;;2.00;;
9834;SDS011;4956;50.996;13.716;2023-03-07T19:54:36;3.15;;;2.28;;
9834;SDS011;4956;50.996;13.716;2023-03-07T19:57:56;3.25;;;2.20;;
9834;SDS011;4956;50.996;13.716;2023-03-07T20:01:17;2.47;;;2.15;;
9834;SDS011;4956;50.996;13.716;2023-03-07T20:04:39;4.10;;;2.78;;
9834;SDS011;4956;50.996;13.716;2023-03-07T20:07:59;3.50;;;2.58;;
9834;SDS011;4956;50.996;13.716;2023-03-07T20:11:20;3.47;;;2.55;;
9834;SDS011;4956;50.996;13.716;2023-03-07T20:14:42;2.70;;;2.38;;
9834;SDS011;4956;50.996;13.716;2023-03-07T20:18:03;3.60;;;2.72;;
9834;SDS011;4956;50.996;13.716;2023-03-07T20:21:25;4.22;;;2.85;;
9834;SDS011;4956;50.996;13.716;2023-03-07T20:24:47;3.90;;;2.80;;
9834;SDS011;4956;50.996;13.716;2023-03-07T20:28:09;3.70;;;3.15;;
9834;SDS011;4956;50.996;13.716;2023-03-07T20:31:31;3.92;;;2.97;;
9834;SDS011;4956;50.996;13.716;2023-03-07T20:34:52;4.13;;;2.83;;
9834;SDS011;4956;50.996;13.716;2023-03-07T20:38:12;4.43;;;3.35;;
9834;SDS011;4956;50.996;13.716;2023-03-07T20:41:32;4.00;;;2.80;;
9834;SDS011;4956;50.996;13.716;2023-03-07T20:44:52;2.85;;;2.55;;
9834;SDS011;4956;50.996;13.716;2023-03-07T20:48:13;3.28;;;2.70;;
9834;SDS011;4956;50.996;13.716;2023-03-07T20:51:34;2.90;;;2.50;;
9834;SDS011;4956;50.996;13.716;2023-03-07T20:54:55;2.90;;;2.58;;
9834;SDS011;4956;50.996;13.716;2023-03-07T20:58:15;3.13;;;2.83;;
9834;SDS011;4956;50.996;13.716;2023-03-07T21:01:35;2.85;;;2.30;;
9834;SDS011;4956;50.996;13.716;2023-03-07T21:04:56;3.63;;;2.63;;
9834;SDS011;4956;50.996;13.716;2023-03-07T21:08:16;3.30;;;2.60;;
9834;SDS011;4956;50.996;13.716;2023-03-07T21:11:38;2.47;;;2.28;;
9834;SDS011;4956;50.996;13.716;2023-03-07T21:14:59;2.63;;;2.38;;
9834;SDS011;4956;50.996;13.716;2023-03-07T21:18:20;3.55;;;2.70;;
9834;SDS011;4956;50.996;13.716;2023-03-07T21:21:40;2.45;;;2.25;;
9834;SDS011;4956;50.996;13.716;2023-03-07T21:25:01;3.00;;;2.55;;
9834;SDS011;4956;50.996;13.716;2023-03-07T21:28:21;3.40;;;2.80;;
9834;SDS011;4956;50.996;13.716;2023-03-07T21:31:41;3.33;;;2.70;;
9834;SDS011;4956;50.996;13.716;2023-03-07T21:35:02;3.30;;;2.58;;
9834;SDS011;4956;50.996;13.716;2023-03-07T21:38:23;3.08;;;2.70;;
9834;SDS011;4956;50.996;13.716;2023-03-07T21:41:43;3.35;;;2.72;;
9834;SDS011;4956;50.996;13.716;2023-03-07T21:45:04;3.13;;;2.80;;
9834;SDS011;4956;50.996;13.716;2023-03-07T21:48:24;3.10;;;2.80;;
9834;SDS011;4956;50.996;13.716;2023-03-07T21:51:45;2.85;;;2.38;;
9834;SDS011;4956;50.996;13.716;2023-03-07T21:55:05;4.47;;;2.58;;
9834;SDS011;4956;50.996;13.716;2023-03-07T21:58:26;3.42;;;2.65;;